Time;durP1;ratioP1;P1;durP2;ratioP2;P2;SDS_P1;SDS_P2;PMS_P1;PMS_P2;Temp;Humidity;BMP_temperature;BMP_pressure;BME280_temperature;BME280_humidity;BME280_pressure;Samples;Min_cycle;Max_cycle;Signal;HPM_P1;HPM_P2
2023/10/02 00:01:10;;;;;;;6.75;4.78;;;21.00;76.40;;;;;;4989006;28;20722;-70
2023/10/02 00:03:41;;;;;;;5.75;4.82;;;21.00;76.40;;;;;;5000705;28;20193;-70
2023/10/02 00:06:11;;;;;;;6.78;4.65;;;21.00;76.40;;;;;;5004296;28;20342;-70
2023/10/02 00:08:49;;;;;;;7.18;4.60;;;21.00;76.40;;;;;;4985305;28;20219;-70
2023/10/02 00:14:26;;;;;;;6.65;4.13;;;21.00;76.40;;;;;;4998915;28;20328;-70
2023/10/02 00:16:58;;;;;;;7.22;5.25;;;21.00;76.40;;;;;;4972564;28;20181;-71
2023/10/02 00:19:38;;;;;;;6.00;4.60;;;21.00;76.40;;;;;;4967158;28;20338;-70
2023/10/02 00:25:10;;;;;;;6.32;4.63;;;21.00;76.40;;;;;;5001900;28;20208;-70
2023/10/02 00:27:39;;;;;;;6.82;5.00;;;21.00;76.40;;;;;;4973142;28;20715;-71
2023/10/02 00:30:07;;;;;;;5.68;4.70;;;21.00;76.40;;;;;;4989251;28;20180;-70
2023/10/02 00:32:35;;;;;;;6.05;4.35;;;21.00;76.40;;;;;;4989391;28;20212;-70
2023/10/02 00:35:03;;;;;;;6.20;4.88;;;21.00;76.40;;;;;;5008803;28;20263;-70
2023/10/02 00:40:26;;;;;;;6.53;4.80;;;21.00;76.40;;;;;;4985951;28;20191;-70
2023/10/02 00:43:33;;;;;;;5.10;4.35;;;21.00;76.40;;;;;;4982925;28;20193;-70
2023/10/02 00:45:49;;;;;;;6.28;5.07;;;21.00;76.40;;;;;;4984333;28;20259;-70
2023/10/02 00:48:26;;;;;;;6.15;4.80;;;21.00;76.40;;;;;;5004041;28;20220;-70
2023/10/02 00:50:59;;;;;;;6.07;4.80;;;21.00;76.40;;;;;;5001928;28;20177;-70
2023/10/02 00:53:39;;;;;;;6.32;4.53;;;21.00;76.40;;;;;;5000314;28;20185;-70
2023/10/02 00:56:28;;;;;;;6.43;4.68;;;21.00;76.40;;;;;;4980419;28;20173;-70
2023/10/02 00:59:00;;;;;;;5.50;4.53;;;20.90;76.30;;;;;;4986341;28;20228;-70
2023/10/02 01:01:31;;;;;;;6.32;4.50;;;20.90;76.30;;;;;;4966568;28;20197;-70
2023/10/02 01:04:08;;;;;;;5.65;4.53;;;21.00;76.40;;;;;;4998652;28;20191;-70
2023/10/02 01:06:54;;;;;;;6.40;5.00;;;21.00;76.40;;;;;;4980124;28;20184;-70
2023/10/02 01:09:26;;;;;;;5.90;4.85;;;21.00;76.30;;;;;;4984280;28;20306;-71
2023/10/02 01:11:56;;;;;;;5.05;4.35;;;21.00;76.40;;;;;;4987900;28;20243;-71
2023/10/02 01:17:09;;;;;;;6.20;4.78;;;21.00;76.40;;;;;;4991131;28;20179;-70
2023/10/02 01:19:52;;;;;;;5.18;4.40;;;21.00;76.40;;;;;;4983686;28;20280;-70
2023/10/02 01:22:28;;;;;;;6.22;4.65;;;20.90;76.30;;;;;;4980903;28;20180;-70
2023/10/02 01:25:12;;;;;;;6.05;4.78;;;20.90;76.30;;;;;;5000229;28;20733;-70
2023/10/02 01:27:46;;;;;;;6.07;4.63;;;20.90;76.30;;;;;;4986813;28;20216;-70
2023/10/02 01:30:18;;;;;;;6.25;5.10;;;20.90;76.30;;;;;;4989494;28;20191;-70
2023/10/02 01:33:11;;;;;;;6.97;4.93;;;20.90;76.30;;;;;;4996847;28;20233;-70
2023/10/02 01:35:46;;;;;;;6.45;4.63;;;20.90;76.30;;;;;;4979457;28;20277;-70
2023/10/02 01:38:18;;;;;;;6.55;4.60;;;20.90;76.30;;;;;;4991523;28;20206;-70
2023/10/02 01:40:48;;;;;;;6.13;4.57;;;20.90;76.30;;;;;;4996476;28;20194;-72
2023/10/02 01:43:16;;;;;;;5.30;4.53;;;20.90;76.30;;;;;;4969745;28;20269;-71
2023/10/02 01:45:45;;;;;;;5.75;4.55;;;20.90;76.20;;;;;;4987559;28;20177;-70
2023/10/02 01:48:15;;;;;;;5.65;4.50;;;20.90;76.20;;;;;;4989980;28;20214;-71
2023/10/02 01:50:45;;;;;;;6.13;4.55;;;20.90;76.30;;;;;;4998886;28;20640;-70
2023/10/02 01:56:11;;;;;;;7.32;4.78;;;20.90;76.20;;;;;;4964982;28;20809;-71
2023/10/02 01:58:42;;;;;;;5.50;4.55;;;20.90;76.10;;;;;;4977872;28;20216;-70
2023/10/02 02:01:09;;;;;;;5.65;4.43;;;20.90;76.20;;;;;;4989733;28;20326;-70
2023/10/02 02:03:48;;;;;;;6.32;4.50;;;20.90;76.20;;;;;;4981337;28;20189;-70
2023/10/02 02:06:22;;;;;;;5.50;4.43;;;20.90;76.10;;;;;;4984596;28;20199;-71
2023/10/02 02:08:56;;;;;;;5.57;4.53;;;20.90;76.20;;;;;;4981797;28;20328;-71
2023/10/02 02:11:23;;;;;;;5.32;4.30;;;20.90;76.20;;;;;;4983728;28;20175;-70
2023/10/02 02:13:51;;;;;;;6.20;4.75;;;20.90;76.20;;;;;;4982221;28;20185;-71
2023/10/02 02:16:22;;;;;;;5.47;4.20;;;20.90;76.20;;;;;;4965205;28;20611;-70
2023/10/02 02:18:50;;;;;;;6.55;4.78;;;20.90;76.20;;;;;;4981506;28;20211;-70
2023/10/02 02:21:19;;;;;;;6.18;4.78;;;20.90;76.20;;;;;;5000134;28;20263;-70
2023/10/02 02:23:46;;;;;;;5.93;4.30;;;20.90;76.20;;;;;;4981349;28;20260;-70
2023/10/02 02:26:21;;;;;;;6.60;4.80;;;20.90;76.10;;;;;;4989087;28;20195;-71
2023/10/02 02:28:51;;;;;;;5.65;4.20;;;20.90;76.10;;;;;;4996033;28;20225;-71
2023/10/02 02:31:31;;;;;;;5.65;4.43;;;20.90;76.10;;;;;;4996826;28;20184;-70
2023/10/02 02:34:06;;;;;;;6.13;4.78;;;20.90;76.10;;;;;;4996995;28;20276;-70
2023/10/02 02:36:35;;;;;;;4.93;4.20;;;20.90;76.20;;;;;;4997221;28;20180;-70
2023/10/02 02:39:15;;;;;;;5.72;4.45;;;20.80;76.00;;;;;;4996473;28;20223;-70
2023/10/02 02:42:36;;;;;;;6.10;4.47;;;20.90;76.20;;;;;;4990900;28;20192;-70
2023/10/02 02:44:46;;;;;;;6.80;4.97;;;20.80;76.00;;;;;;4969230;28;20205;-70
2023/10/02 02:47:21;;;;;;;5.85;4.70;;;20.80;76.00;;;;;;4974501;28;20792;-70
2023/10/02 02:49:52;;;;;;;5.88;4.55;;;20.90;76.10;;;;;;4991032;28;20247;-70
2023/10/02 02:52:32;;;;;;;5.50;4.55;;;20.90;76.00;;;;;;4972493;28;20594;-70
2023/10/02 02:55:12;;;;;;;8.10;5.28;;;20.90;76.10;;;;;;4974924;28;20247;-70
2023/10/02 02:57:45;;;;;;;6.85;4.40;;;20.80;76.00;;;;;;4974545;28;20263;-70
2023/10/02 03:00:31;;;;;;;6.95;4.88;;;20.90;76.10;;;;;;4974605;28;20193;-71
2023/10/02 03:03:00;;;;;;;7.10;5.05;;;20.80;76.00;;;;;;4974805;28;20185;-71
2023/10/02 03:05:40;;;;;;;5.95;4.65;;;20.90;76.10;;;;;;4991879;28;20217;-71
2023/10/02 03:08:12;;;;;;;4.85;4.10;;;20.80;76.00;;;;;;4995287;28;20216;-70
2023/10/02 03:10:40;;;;;;;5.68;4.53;;;20.80;76.00;;;;;;5000889;28;20219;-70
2023/10/02 03:13:16;;;;;;;6.07;4.10;;;20.80;76.00;;;;;;4998406;28;20197;-70
2023/10/02 03:15:46;;;;;;;5.88;4.50;;;20.80;76.00;;;;;;4987830;28;20263;-71
2023/10/02 03:18:23;;;;;;;5.28;4.40;;;20.80;75.90;;;;;;4997146;28;20219;-70
2023/10/02 03:20:50;;;;;;;6.40;4.72;;;20.80;76.00;;;;;;4978266;28;20275;-70
2023/10/02 03:23:18;;;;;;;6.22;4.50;;;20.80;75.90;;;;;;5001086;28;20287;-70
2023/10/02 03:25:47;;;;;;;5.20;4.20;;;20.80;76.00;;;;;;4998928;28;20189;-70
2023/10/02 03:28:27;;;;;;;5.53;4.13;;;20.80;75.90;;;;;;5000548;28;20318;-70
2023/10/02 03:30:57;;;;;;;6.05;4.40;;;20.80;76.00;;;;;;5004891;28;20295;-70
2023/10/02 03:33:31;;;;;;;6.22;4.38;;;20.80;75.90;;;;;;5002694;28;20184;-70
2023/10/02 03:36:08;;;;;;;5.88;4.80;;;20.80;76.00;;;;;;4977982;28;20188;-70
2023/10/02 03:38:42;;;;;;;5.35;4.30;;;20.80;75.90;;;;;;4982045;28;20294;-70
2023/10/02 03:41:10;;;;;;;7.13;5.35;;;20.80;76.00;;;;;;4995253;28;20208;-71
2023/10/02 03:43:49;;;;;;;5.63;4.10;;;20.80;75.90;;;;;;4981906;28;20183;-70
2023/10/02 03:46:35;;;;;;;5.97;4.50;;;20.80;75.90;;;;;;4995462;28;20234;-71
2023/10/02 03:49:04;;;;;;;6.30;4.28;;;20.80;75.90;;;;;;4998404;28;20240;-71
2023/10/02 03:51:37;;;;;;;6.35;4.63;;;20.80;76.00;;;;;;4999621;28;20184;-70
2023/10/02 03:54:17;;;;;;;5.65;4.45;;;20.80;75.90;;;;;;5000529;28;20224;-70
2023/10/02 03:56:51;;;;;;;5.75;4.53;;;20.80;75.90;;;;;;4981042;28;20192;-70
2023/10/02 03:59:26;;;;;;;5.35;4.32;;;20.80;75.90;;;;;;4995246;28;20269;-70
2023/10/02 04:02:24;;;;;;;5.57;4.00;;;20.80;75.90;;;;;;4997230;28;20192;-70
2023/10/02 04:04:44;;;;;;;6.43;4.90;;;20.80;75.90;;;;;;4977016;28;20664;-70
2023/10/02 04:07:11;;;;;;;5.22;4.47;;;20.80;75.90;;;;;;5001575;28;20213;-70
2023/10/02 04:09:37;;;;;;;5.78;4.63;;;20.80;75.80;;;;;;4999601;28;20240;-70
2023/10/02 04:12:06;;;;;;;5.05;4.30;;;20.80;75.80;;;;;;5001438;28;20193;-70
2023/10/02 04:14:33;;;;;;;7.10;4.95;;;20.80;75.80;;;;;;4982360;28;20305;-70
2023/10/02 04:19:51;;;;;;;5.75;4.35;;;20.80;75.80;;;;;;4997715;28;20181;-70
2023/10/02 04:22:22;;;;;;;5.25;4.32;;;20.80;75.90;;;;;;4978568;28;20189;-70
2023/10/02 04:25:06;;;;;;;6.55;4.78;;;20.80;75.90;;;;;;4991318;28;20182;-70
2023/10/02 04:32:51;;;;;;;4.95;4.45;;;20.80;75.80;;;;;;4979442;28;20246;-70
2023/10/02 04:38:09;;;;;;;5.82;4.32;;;20.80;75.80;;;;;;4976020;28;20234;-70
2023/10/02 04:40:49;;;;;;;6.93;4.82;;;20.80;75.80;;;;;;4963290;28;20212;-70
2023/10/02 04:43:19;;;;;;;6.05;4.28;;;20.80;75.80;;;;;;4980621;28;20239;-70
2023/10/02 04:45:52;;;;;;;5.80;4.63;;;20.80;75.80;;;;;;4996786;28;20221;-70
2023/10/02 04:48:26;;;;;;;6.18;4.32;;;20.80;75.80;;;;;;4963320;28;20221;-70
2023/10/02 04:50:56;;;;;;;5.88;4.25;;;20.70;75.70;;;;;;5001158;28;20190;-70
2023/10/02 04:53:22;;;;;;;5.68;4.18;;;20.80;75.80;;;;;;5008848;28;20193;-71
2023/10/02 04:56:07;;;;;;;6.05;4.82;;;20.80;75.80;;;;;;5001005;28;20200;-70
2023/10/02 04:58:39;;;;;;;6.15;4.35;;;20.70;75.70;;;;;;4978819;28;20217;-70
2023/10/02 05:03:46;;;;;;;5.28;4.45;;;20.80;75.70;;;;;;5005104;28;20211;-70
2023/10/02 05:06:16;;;;;;;5.32;4.28;;;20.80;75.80;;;;;;4979908;28;20211;-73
2023/10/02 05:11:26;;;;;;;6.30;4.80;;;20.70;75.70;;;;;;4995232;28;20196;-70
2023/10/02 05:16:32;;;;;;;4.97;4.25;;;20.70;75.70;;;;;;4994718;28;20185;-70
2023/10/02 05:19:00;;;;;;;6.00;4.55;;;20.70;75.70;;;;;;4977648;28;20223;-70
2023/10/02 05:21:36;;;;;;;8.02;5.00;;;20.70;75.70;;;;;;4993885;28;20180;-70
2023/10/02 05:24:11;;;;;;;6.00;4.80;;;20.70;75.70;;;;;;4984408;28;20187;-70
2023/10/02 05:26:39;;;;;;;5.70;4.40;;;20.70;75.70;;;;;;4964816;28;20198;-70
2023/10/02 05:29:07;;;;;;;5.95;4.43;;;20.70;75.70;;;;;;4980445;28;20220;-70
2023/10/02 05:31:40;;;;;;;6.63;4.78;;;20.70;75.70;;;;;;5001336;28;20201;-70
2023/10/02 05:34:23;;;;;;;5.53;4.25;;;20.70;75.70;;;;;;4984497;28;20276;-71
2023/10/02 05:37:03;;;;;;;6.18;4.72;;;20.70;75.60;;;;;;4989584;28;20192;-70
2023/10/02 05:39:39;;;;;;;6.53;4.53;;;20.80;75.70;;;;;;5000183;28;20701;-70
2023/10/02 05:42:15;;;;;;;7.63;4.97;;;20.70;75.60;;;;;;5000548;28;20202;-70
2023/10/02 05:44:47;;;;;;;6.85;4.70;;;20.70;75.60;;;;;;4976999;28;20592;-70
2023/10/02 05:47:15;;;;;;;6.00;4.65;;;20.70;75.60;;;;;;4993136;28;20197;-70
2023/10/02 05:49:48;;;;;;;5.50;4.10;;;20.70;75.60;;;;;;4989297;28;20273;-70
2023/10/02 05:52:19;;;;;;;7.13;4.72;;;20.70;75.60;;;;;;4991282;28;20200;-70
2023/10/02 05:54:53;;;;;;;5.65;4.38;;;20.70;75.60;;;;;;4993008;28;20192;-70
2023/10/02 05:57:19;;;;;;;4.80;4.10;;;20.70;76.40;;;;;;4991298;28;20272;-70
2023/10/02 05:59:54;;;;;;;6.05;4.30;;;20.70;75.60;;;;;;4992354;28;20176;-70
2023/10/02 06:02:22;;;;;;;5.35;4.43;;;20.70;75.60;;;;;;4991086;28;20212;-70
2023/10/02 06:04:54;;;;;;;6.00;4.60;;;20.70;75.60;;;;;;4977663;28;20185;-70
2023/10/02 06:10:09;;;;;;;5.95;4.38;;;20.70;75.60;;;;;;4988986;28;20185;-71
2023/10/02 06:12:42;;;;;;;6.80;4.97;;;20.70;75.70;;;;;;4978561;28;20188;-70
2023/10/02 06:17:58;;;;;;;6.00;4.50;;;20.70;75.60;;;;;;4987856;28;20218;-70
2023/10/02 06:20:24;;;;;;;6.57;5.07;;;20.70;75.70;;;;;;4999096;28;20243;-70
2023/10/02 06:23:03;;;;;;;6.13;4.90;;;20.70;75.60;;;;;;4975228;28;20570;-70
2023/10/02 06:25:30;;;;;;;6.30;4.82;;;20.70;75.60;;;;;;4975889;28;20216;-70
2023/10/02 06:28:19;;;;;;;7.03;4.82;;;20.70;75.50;;;;;;4987730;28;20205;-70
2023/10/02 06:30:43;;;;;;;5.68;4.43;;;20.70;75.60;;;;;;4992369;28;20185;-70
2023/10/02 06:33:10;;;;;;;5.63;4.60;;;20.70;75.60;;;;;;4991317;28;20185;-70
2023/10/02 06:35:56;;;;;;;6.20;4.68;;;20.60;75.50;;;;;;4999166;28;20181;-70
2023/10/02 06:38:23;;;;;;;6.18;4.53;;;20.70;75.60;;;;;;4984480;28;20239;-70
2023/10/02 06:40:57;;;;;;;8.35;4.88;;;20.70;75.60;;;;;;4991206;28;20276;-70
2023/10/02 06:43:32;;;;;;;5.28;4.40;;;20.70;75.60;;;;;;5008689;28;20263;-70
2023/10/02 06:46:10;;;;;;;5.88;4.55;;;20.70;75.60;;;;;;4978029;28;20188;-70
2023/10/02 06:48:43;;;;;;;5.25;4.30;;;20.70;75.70;;;;;;4993345;28;20594;-70
2023/10/02 06:51:13;;;;;;;6.63;5.10;;;20.70;75.60;;;;;;5011291;28;20184;-70
2023/10/02 06:53:40;;;;;;;6.07;4.72;;;20.70;75.60;;;;;;4982468;28;20192;-70
2023/10/02 06:56:11;;;;;;;6.32;4.60;;;20.70;75.70;;;;;;4975307;28;20667;-71
2023/10/02 06:58:52;;;;;;;6.20;4.75;;;20.70;75.70;;;;;;4994027;28;20240;-70
2023/10/02 07:01:18;;;;;;;5.90;4.32;;;20.70;75.70;;;;;;5010659;28;20183;-70
2023/10/02 07:03:52;;;;;;;5.55;4.63;;;20.70;75.70;;;;;;4980850;28;20290;-70
2023/10/02 07:06:26;;;;;;;6.40;4.63;;;20.70;75.70;;;;;;5004721;28;20196;-70
2023/10/02 07:09:10;;;;;;;6.25;4.60;;;20.70;75.70;;;;;;4989225;28;20221;-71
2023/10/02 07:11:45;;;;;;;6.88;4.55;;;20.70;75.90;;;;;;4992206;28;20291;-70
2023/10/02 07:14:12;;;;;;;6.03;4.57;;;20.70;75.80;;;;;;5001562;28;20275;-71
2023/10/02 07:16:38;;;;;;;5.85;4.93;;;20.70;75.80;;;;;;4995437;28;20188;-70
2023/10/02 07:19:04;;;;;;;6.20;4.63;;;20.70;75.70;;;;;;5013350;28;20694;-70
2023/10/02 07:21:31;;;;;;;7.30;5.03;;;20.70;75.80;;;;;;5005144;28;20193;-70
2023/10/02 07:24:02;;;;;;;5.72;4.65;;;20.70;75.90;;;;;;4996502;28;20336;-70
2023/10/02 07:29:13;;;;;;;5.72;4.60;;;20.70;76.00;;;;;;5009919;28;20744;-70
2023/10/02 07:31:44;;;;;;;6.40;4.13;;;20.70;76.00;;;;;;5011619;28;20180;-70
2023/10/02 07:34:11;;;;;;;6.45;4.95;;;20.70;76.00;;;;;;4988416;28;20188;-71
2023/10/02 07:36:44;;;;;;;6.70;4.75;;;20.70;76.00;;;;;;4987009;28;20192;-70
2023/10/02 07:42:04;;;;;;;6.13;4.00;;;20.70;76.00;;;;;;5007892;28;20226;-70
2023/10/02 07:44:39;;;;;;;5.78;4.53;;;20.70;76.00;;;;;;4993600;28;20284;-70
2023/10/02 07:47:11;;;;;;;5.38;4.28;;;20.70;76.00;;;;;;4978747;28;20183;-70
2023/10/02 07:49:39;;;;;;;7.97;5.45;;;20.70;76.10;;;;;;4978963;28;20219;-71
2023/10/02 07:52:08;;;;;;;5.75;4.80;;;20.70;76.10;;;;;;5011139;28;20267;-70
2023/10/02 07:54:48;;;;;;;6.18;4.47;;;20.70;76.20;;;;;;5009265;28;20184;-70
2023/10/02 07:57:14;;;;;;;7.88;5.32;;;20.70;76.20;;;;;;5010539;28;20191;-70
2023/10/02 07:59:43;;;;;;;7.32;4.78;;;20.70;76.20;;;;;;4987056;28;20196;-70
2023/10/02 08:02:23;;;;;;;5.88;4.82;;;20.70;76.40;;;;;;4994329;28;20580;-70
2023/10/02 08:04:52;;;;;;;6.97;4.78;;;20.70;76.40;;;;;;4973603;28;20611;-70
2023/10/02 08:07:19;;;;;;;8.05;5.00;;;20.80;76.50;;;;;;4997854;28;20196;-70
2023/10/02 08:09:48;;;;;;;7.70;5.18;;;20.80;76.30;;;;;;5003669;28;20244;-70
2023/10/02 08:12:30;;;;;;;7.85;5.65;;;20.80;76.70;;;;;;5000931;28;20193;-70
2023/10/02 08:20:24;;;;;;;7.50;5.28;;;20.80;77.00;;;;;;5005670;28;20195;-70
2023/10/02 08:22:52;;;;;;;7.32;5.55;;;20.90;77.00;;;;;;4993906;28;20192;-71
2023/10/02 08:25:23;;;;;;;6.85;5.20;;;20.80;76.90;;;;;;5008850;28;20191;-70
2023/10/02 08:27:57;;;;;;;7.95;5.57;;;20.90;77.00;;;;;;5004167;28;20211;-70
2023/10/02 08:30:31;;;;;;;7.85;5.43;;;20.90;77.00;;;;;;5010710;28;20717;-70
2023/10/02 08:33:11;;;;;;;8.07;5.65;;;20.90;76.90;;;;;;5010849;28;20188;-71
2023/10/02 08:35:39;;;;;;;8.50;5.40;;;20.90;77.30;;;;;;4993051;28;20180;-70
2023/10/02 08:38:21;;;;;;;9.05;5.43;;;20.90;76.90;;;;;;4994191;28;20727;-70
2023/10/02 08:40:58;;;;;;;7.78;5.68;;;20.90;76.90;;;;;;5005981;28;20200;-70
2023/10/02 08:43:42;;;;;;;8.90;6.03;;;21.00;77.00;;;;;;5005798;28;20192;-71
2023/10/02 08:46:28;;;;;;;9.98;5.95;;;21.00;77.00;;;;;;4992730;28;20195;-70
2023/10/02 08:48:56;;;;;;;7.90;5.93;;;20.90;77.00;;;;;;4989746;28;20220;-70
2023/10/02 08:51:32;;;;;;;8.15;5.47;;;21.00;77.00;;;;;;4998709;28;20184;-70
2023/10/02 08:54:05;;;;;;;7.75;5.75;;;21.00;77.00;;;;;;4992139;28;20192;-70
2023/10/02 08:56:44;;;;;;;7.57;5.72;;;21.00;77.00;;;;;;5006559;28;20246;-70
2023/10/02 08:59:18;;;;;;;9.10;6.35;;;21.00;77.00;;;;;;5008645;28;20204;-70
2023/10/02 09:01:48;;;;;;;8.45;6.28;;;21.00;77.00;;;;;;4990956;28;20193;-70
2023/10/02 09:04:51;;;;;;;8.82;6.15;;;21.00;77.00;;;;;;4983616;28;20199;-70
2023/10/02 09:10:24;;;;;;;9.95;6.88;;;21.00;77.10;;;;;;5004383;28;20195;-70
2023/10/02 09:13:24;;;;;;;9.63;6.22;;;21.00;77.20;;;;;;5001832;28;20879;-70
2023/10/02 09:15:53;;;;;;;8.82;6.05;;;21.00;77.30;;;;;;5008645;28;20233;-70
2023/10/02 09:19:07;;;;;;;8.50;6.07;;;21.00;77.30;;;;;;4975706;28;20213;-70
2023/10/02 09:21:22;;;;;;;8.50;6.38;;;21.00;77.40;;;;;;5003976;28;20192;-70
2023/10/02 09:23:52;;;;;;;10.02;6.65;;;21.00;77.30;;;;;;4986085;28;20279;-70
2023/10/02 09:26:26;;;;;;;10.00;6.63;;;21.00;77.30;;;;;;4968131;28;20196;-70
2023/10/02 09:29:00;;;;;;;9.38;6.80;;;21.00;77.30;;;;;;4991740;28;20334;-70
2023/10/02 09:31:34;;;;;;;10.25;6.75;;;21.00;77.40;;;;;;4988736;28;20263;-70
2023/10/02 09:34:10;;;;;;;9.80;6.95;;;21.00;77.40;;;;;;4982355;28;20188;-70
2023/10/02 09:36:47;;;;;;;10.55;7.00;;;21.00;77.40;;;;;;4966169;28;20185;-70
2023/10/02 09:39:36;;;;;;;10.10;6.70;;;21.00;77.60;;;;;;4989897;28;20227;-70
2023/10/02 09:42:07;;;;;;;11.75;7.30;;;21.00;77.50;;;;;;5002042;28;20188;-70
2023/10/02 09:44:45;;;;;;;11.05;6.80;;;21.00;77.40;;;;;;5005528;28;20192;-71
2023/10/02 09:47:13;;;;;;;12.07;7.63;;;21.00;77.50;;;;;;4986338;28;20195;-71
2023/10/02 09:50:29;;;;;;;11.77;7.45;;;21.00;77.50;;;;;;5006538;28;20213;-70
2023/10/02 09:53:08;;;;;;;11.05;7.65;;;21.00;77.50;;;;;;4969716;28;20206;-71
2023/10/02 09:56:09;;;;;;;12.07;7.80;;;21.00;77.50;;;;;;5000216;28;20235;-70
2023/10/02 09:58:52;;;;;;;12.55;7.75;;;21.00;77.60;;;;;;4970862;28;20220;-70
2023/10/02 10:03:57;;;;;;;11.32;7.90;;;21.00;77.50;;;;;;4989165;28;20201;-70
2023/10/02 10:06:36;;;;;;;10.65;7.05;;;21.00;77.60;;;;;;4971312;28;20187;-70
2023/10/02 10:11:45;;;;;;;12.07;7.35;;;21.00;77.70;;;;;;5001246;28;20211;-70
2023/10/02 10:14:42;;;;;;;11.73;7.80;;;21.10;77.80;;;;;;5002925;28;20191;-70
2023/10/02 10:17:17;;;;;;;11.30;7.45;;;21.00;77.50;;;;;;4998283;28;20176;-70
2023/10/02 10:20:08;;;;;;;9.95;7.00;;;21.10;77.70;;;;;;4974722;28;20198;-70
2023/10/02 10:22:38;;;;;;;12.18;7.28;;;21.10;77.70;;;;;;4975417;28;20181;-71
2023/10/02 10:25:32;;;;;;;11.32;7.30;;;21.10;77.70;;;;;;5006225;28;20230;-70
2023/10/02 10:28:09;;;;;;;11.73;7.72;;;21.10;77.80;;;;;;4991284;28;20286;-70
2023/10/02 10:30:43;;;;;;;11.93;7.78;;;21.10;77.90;;;;;;5005678;28;20275;-70
2023/10/02 10:35:51;;;;;;;10.93;7.20;;;21.00;77.60;;;;;;4976291;28;20201;-70
2023/10/02 10:38:25;;;;;;;11.48;7.50;;;21.10;77.90;;;;;;4970958;28;20220;-70
2023/10/02 10:41:00;;;;;;;10.00;6.50;;;21.10;77.90;;;;;;4990010;28;20294;-70
2023/10/02 10:43:43;;;;;;;11.85;8.07;;;21.10;77.90;;;;;;4980015;28;20191;-70
2023/10/02 10:46:30;;;;;;;11.05;7.05;;;21.10;77.90;;;;;;4994978;28;20188;-70
2023/10/02 10:49:16;;;;;;;11.73;7.63;;;21.10;78.00;;;;;;4993785;28;20252;-70
2023/10/02 10:51:43;;;;;;;10.05;7.10;;;21.10;78.00;;;;;;4994959;28;20201;-70
2023/10/02 10:54:30;;;;;;;11.35;7.75;;;21.10;78.00;;;;;;4982790;28;20199;-70
2023/10/02 11:00:25;;;;;;;9.88;6.68;;;21.10;78.00;;;;;;4979705;28;20212;-70
2023/10/02 11:03:00;;;;;;;11.75;7.72;;;21.10;78.00;;;;;;4989783;28;20195;-71
2023/10/02 11:05:32;;;;;;;11.80;8.02;;;21.10;78.10;;;;;;4992319;28;20188;-70
2023/10/02 11:08:28;;;;;;;13.25;8.05;;;21.10;78.10;;;;;;5006590;28;20207;-71
2023/10/02 11:11:18;;;;;;;11.38;7.28;;;21.10;78.80;;;;;;5000709;28;20225;-72
2023/10/02 11:13:54;;;;;;;9.52;6.70;;;21.10;78.20;;;;;;5004471;28;20216;-70
2023/10/02 11:16:36;;;;;;;10.02;7.05;;;21.10;78.20;;;;;;4989202;28;20183;-70
2023/10/02 11:22:22;;;;;;;12.35;8.10;;;21.10;78.10;;;;;;5004815;28;20195;-70
2023/10/02 11:24:54;;;;;;;12.88;7.78;;;21.20;78.20;;;;;;4997619;28;20184;-70
2023/10/02 11:27:22;;;;;;;9.30;6.40;;;21.10;78.40;;;;;;4997500;28;20606;-70
2023/10/02 11:30:01;;;;;;;11.75;7.50;;;21.10;78.30;;;;;;5000280;28;20214;-70
2023/10/02 11:32:59;;;;;;;10.93;7.28;;;21.20;78.40;;;;;;5004557;28;20263;-70
2023/10/02 11:35:29;;;;;;;9.75;6.93;;;21.10;78.30;;;;;;5000011;28;20272;-71
2023/10/02 11:37:58;;;;;;;11.98;7.65;;;21.10;78.30;;;;;;5003764;28;20208;-70
2023/10/02 11:40:25;;;;;;;11.18;7.25;;;21.20;78.60;;;;;;5004149;28;20203;-70
2023/10/02 11:42:51;;;;;;;12.13;7.40;;;21.20;78.60;;;;;;5005105;28;20181;-70
2023/10/02 11:45:17;;;;;;;11.23;7.85;;;21.20;78.60;;;;;;5005979;28;20212;-70
2023/10/02 11:47:43;;;;;;;11.15;7.43;;;21.10;78.60;;;;;;5003274;28;20255;-70
2023/10/02 11:50:09;;;;;;;8.82;6.30;;;21.20;78.60;;;;;;4973154;28;20180;-70
2023/10/02 11:52:35;;;;;;;9.30;6.95;;;21.20;78.60;;;;;;4985793;28;20197;-70
2023/10/02 11:55:01;;;;;;;13.07;7.65;;;21.20;78.60;;;;;;5004392;28;20195;-70
2023/10/02 11:57:27;;;;;;;10.75;7.28;;;21.20;78.60;;;;;;4970469;28;20188;-70
2023/10/02 11:59:53;;;;;;;9.32;6.57;;;21.20;78.70;;;;;;5007541;28;20208;-70
2023/10/02 12:02:19;;;;;;;11.60;7.20;;;21.20;78.60;;;;;;4971385;28;20242;-70
2023/10/02 12:04:46;;;;;;;11.52;7.63;;;21.20;78.50;;;;;;4997837;28;20204;-70
2023/10/02 12:07:16;;;;;;;10.55;7.32;;;21.20;78.60;;;;;;5000253;28;20187;-71
2023/10/02 12:09:47;;;;;;;11.38;7.40;;;21.20;78.50;;;;;;4984992;28;20232;-70
2023/10/02 12:12:13;;;;;;;9.73;6.57;;;21.20;78.60;;;;;;4971825;28;20188;-70
2023/10/02 12:14:39;;;;;;;10.32;6.97;;;21.20;78.50;;;;;;4997922;28;20305;-70
2023/10/02 12:17:06;;;;;;;10.57;7.15;;;21.20;78.60;;;;;;5003771;28;20255;-70
2023/10/02 12:19:36;;;;;;;10.27;7.10;;;21.20;78.60;;;;;;4969199;28;20212;-70
2023/10/02 12:22:08;;;;;;;11.18;7.32;;;21.20;78.70;;;;;;4992944;28;20208;-70
2023/10/02 12:24:36;;;;;;;11.35;7.43;;;21.20;78.70;;;;;;4984392;28;20185;-70
2023/10/02 12:27:10;;;;;;;10.35;7.10;;;21.20;78.70;;;;;;5003061;28;20283;-70
2023/10/02 12:29:37;;;;;;;10.93;7.40;;;21.20;78.90;;;;;;5000278;28;20336;-70
2023/10/02 12:32:03;;;;;;;13.02;8.30;;;21.20;78.80;;;;;;5003127;28;20188;-70
2023/10/02 12:34:29;;;;;;;13.35;8.13;;;21.20;78.70;;;;;;5000881;28;20605;-70
2023/10/02 12:36:55;;;;;;;12.20;7.40;;;21.20;78.60;;;;;;4994163;28;20235;-70
2023/10/02 12:39:28;;;;;;;12.63;8.23;;;21.20;78.60;;;;;;4986320;28;20248;-70
2023/10/02 12:41:55;;;;;;;13.05;8.35;;;21.20;78.60;;;;;;4977803;28;20722;-71
2023/10/02 12:44:21;;;;;;;11.77;8.25;;;21.20;78.80;;;;;;4985625;28;20267;-70
2023/10/02 12:46:50;;;;;;;12.90;8.07;;;21.20;78.70;;;;;;4996705;28;20277;-70
2023/10/02 12:49:21;;;;;;;11.05;7.05;;;21.20;78.60;;;;;;5001965;28;20227;-70
2023/10/02 12:51:53;;;;;;;13.52;8.50;;;21.20;78.70;;;;;;4999771;28;20200;-70
2023/10/02 12:54:19;;;;;;;10.02;7.15;;;21.20;78.60;;;;;;4978719;28;20242;-70
2023/10/02 12:56:45;;;;;;;11.90;8.00;;;21.20;78.60;;;;;;4995896;28;20185;-70
2023/10/02 12:59:11;;;;;;;10.18;6.95;;;21.20;78.70;;;;;;4995393;28;20303;-70
2023/10/02 13:01:38;;;;;;;12.40;7.80;;;21.20;78.60;;;;;;4979342;28;20636;-70
2023/10/02 13:04:05;;;;;;;14.05;8.13;;;21.20;78.60;;;;;;5004492;28;20181;-70
2023/10/02 13:06:31;;;;;;;14.23;7.85;;;21.20;78.60;;;;;;4969726;28;20561;-70
2023/10/02 13:09:19;;;;;;;12.00;7.97;;;21.30;78.70;;;;;;4985466;28;20311;-70
2023/10/02 13:11:47;;;;;;;12.50;8.32;;;21.30;78.80;;;;;;4986095;28;20722;-71
2023/10/02 13:14:13;;;;;;;13.55;8.65;;;21.30;79.60;;;;;;4990125;28;20183;-70
2023/10/02 13:16:42;;;;;;;15.48;9.50;;;21.20;78.60;;;;;;4995195;28;20181;-70
2023/10/02 13:19:09;;;;;;;12.30;7.88;;;21.30;78.80;;;;;;4989559;28;20216;-71
2023/10/02 13:21:42;;;;;;;14.93;8.85;;;21.30;78.80;;;;;;4982321;28;20251;-70
2023/10/02 13:24:14;;;;;;;13.95;8.27;;;21.30;78.90;;;;;;5001101;28;20218;-71
2023/10/02 13:26:41;;;;;;;11.98;8.38;;;21.30;78.90;;;;;;4994508;28;20188;-70
2023/10/02 13:29:07;;;;;;;14.18;8.27;;;21.30;78.90;;;;;;4978645;28;20236;-70
2023/10/02 13:31:33;;;;;;;10.80;7.30;;;21.30;78.90;;;;;;4994728;28;20189;-70
2023/10/02 13:34:00;;;;;;;12.23;8.00;;;21.30;78.90;;;;;;4993054;28;20240;-70
2023/10/02 13:36:27;;;;;;;12.18;8.07;;;21.30;79.00;;;;;;4979823;28;20176;-70
2023/10/02 13:38:57;;;;;;;12.27;8.30;;;21.30;79.00;;;;;;4991370;28;20279;-70
2023/10/02 13:41:25;;;;;;;13.57;8.70;;;21.30;79.00;;;;;;4991642;28;20196;-70
2023/10/02 13:43:53;;;;;;;13.40;8.43;;;21.30;79.00;;;;;;4988516;28;20186;-71
2023/10/02 13:46:22;;;;;;;12.45;7.93;;;21.30;79.10;;;;;;4975358;28;20188;-70
2023/10/02 13:48:52;;;;;;;13.45;7.85;;;21.30;79.10;;;;;;4977851;28;20296;-70
2023/10/02 13:51:20;;;;;;;13.70;8.60;;;21.30;79.20;;;;;;4991260;28;20184;-70
2023/10/02 13:53:47;;;;;;;11.30;7.75;;;21.30;79.10;;;;;;4980521;28;20250;-70
2023/10/02 13:56:20;;;;;;;12.30;8.15;;;21.30;79.10;;;;;;4992186;28;20177;-70
2023/10/02 13:58:50;;;;;;;12.43;8.07;;;21.30;79.10;;;;;;4990848;28;20246;-70
2023/10/02 14:01:24;;;;;;;13.25;8.13;;;21.30;79.10;;;;;;4993096;28;20668;-70
2023/10/02 14:03:53;;;;;;;10.35;7.38;;;21.30;79.20;;;;;;4987894;28;20263;-70
2023/10/02 14:06:24;;;;;;;11.50;7.57;;;21.30;79.20;;;;;;4988363;28;20214;-70
2023/10/02 14:08:53;;;;;;;11.13;7.45;;;21.40;79.30;;;;;;4990846;28;20318;-70
2023/10/02 14:11:23;;;;;;;8.95;6.65;;;21.30;79.20;;;;;;4989506;28;20191;-70
2023/10/02 14:13:49;;;;;;;12.40;7.45;;;21.30;79.20;;;;;;4974849;28;20663;-70
2023/10/02 14:16:19;;;;;;;10.00;6.88;;;21.40;79.40;;;;;;4977164;28;20267;-70
2023/10/02 14:18:55;;;;;;;12.40;8.15;;;21.40;79.50;;;;;;4987522;28;20216;-70
2023/10/02 14:21:23;;;;;;;12.52;7.88;;;21.40;79.40;;;;;;4992501;28;20207;-70